sensor_id;sensor_type;location;lat;lon;timestamp;temperature;humidity
14053;DHT22;7101;51.600;7.310;2023-06-10T00:02:14;17.80;99.90
14053;DHT22;7101;51.600;7.310;2023-06-10T00:04:43;17.90;99.90
14053;DHT22;7101;51.600;7.310;2023-06-10T00:07:10;17.90;99.90
14053;DHT22;7101;51.600;7.310;2023-06-10T00:09:37;17.90;99.90
14053;DHT22;7101;51.600;7.310;2023-06-10T00:12:05;18.00;99.90
14053;DHT22;7101;51.600;7.310;2023-06-10T00:14:32;18.10;99.90
14053;DHT22;7101;51.600;7.310;2023-06-10T00:17:04;18.20;99.90
14053;DHT22;7101;51.600;7.310;2023-06-10T00:19:35;18.20;99.90
14053;DHT22;7101;51.600;7.310;2023-06-10T00:22:02;18.20;99.90
14053;DHT22;7101;51.600;7.310;2023-06-10T00:24:30;18.00;99.90
14053;DHT22;7101;51.600;7.310;2023-06-10T00:26:57;17.80;99.90
14053;DHT22;7101;51.600;7.310;2023-06-10T00:29:24;17.80;99.90
14053;DHT22;7101;51.600;7.310;2023-06-10T00:31:50;17.90;99.90
14053;DHT22;7101;51.600;7.310;2023-06-10T00:34:20;17.90;99.90
14053;DHT22;7101;51.600;7.310;2023-06-10T00:36:47;17.80;99.90
14053;DHT22;7101;51.600;7.310;2023-06-10T00:39:14;17.70;99.90
14053;DHT22;7101;51.600;7.310;2023-06-10T00:41:42;17.70;99.90
14053;DHT22;7101;51.600;7.310;2023-06-10T00:44:09;17.60;99.90
14053;DHT22;7101;51.600;7.310;2023-06-10T00:46:36;17.40;99.90
14053;DHT22;7101;51.600;7.310;2023-06-10T00:49:03;17.40;99.90
14053;DHT22;7101;51.600;7.310;2023-06-10T00:51:32;17.50;99.90
14053;DHT22;7101;51.600;7.310;2023-06-10T00:53:59;17.50;99.90
14053;DHT22;7101;51.600;7.310;2023-06-10T00:56:26;17.40;99.90
14053;DHT22;7101;51.600;7.310;2023-06-10T00:58:54;17.40;99.90
14053;DHT22;7101;51.600;7.310;2023-06-10T01:01:21;17.40;99.90
14053;DHT22;7101;51.600;7.310;2023-06-10T01:03:48;17.40;99.90
14053;DHT22;7101;51.600;7.310;2023-06-10T01:06:22;17.40;99.90
14053;DHT22;7101;51.600;7.310;2023-06-10T01:08:56;17.40;99.90
14053;DHT22;7101;51.600;7.310;2023-06-10T01:11:36;17.40;99.90
14053;DHT22;7101;51.600;7.310;2023-06-10T01:14:04;17.40;99.90
14053;DHT22;7101;51.600;7.310;2023-06-10T01:16:33;17.50;99.90
14053;DHT22;7101;51.600;7.310;2023-06-10T01:19:02;17.40;99.90
14053;DHT22;7101;51.600;7.310;2023-06-10T01:21:31;17.40;99.90
14053;DHT22;7101;51.600;7.310;2023-06-10T01:23:58;17.40;99.90
14053;DHT22;7101;51.600;7.310;2023-06-10T01:26:28;17.30;99.90
14053;DHT22;7101;51.600;7.310;2023-06-10T01:29:00;17.30;99.90
14053;DHT22;7101;51.600;7.310;2023-06-10T01:31:36;17.30;99.90
14053;DHT22;7101;51.600;7.310;2023-06-10T01:34:12;17.40;99.90
14053;DHT22;7101;51.600;7.310;2023-06-10T01:36:44;17.50;99.90
14053;DHT22;7101;51.600;7.310;2023-06-10T01:39:14;17.40;99.90
14053;DHT22;7101;51.600;7.310;2023-06-10T01:41:42;17.40;99.90
14053;DHT22;7101;51.600;7.310;2023-06-10T01:44:09;17.30;99.90
14053;DHT22;7101;51.600;7.310;2023-06-10T01:46:36;17.30;99.90
14053;DHT22;7101;51.600;7.310;2023-06-10T01:49:03;17.30;99.90
14053;DHT22;7101;51.600;7.310;2023-06-10T01:51:29;17.30;99.90
14053;DHT22;7101;51.600;7.310;2023-06-10T01:54:04;17.30;99.90
14053;DHT22;7101;51.600;7.310;2023-06-10T01:56:31;17.20;99.90
14053;DHT22;7101;51.600;7.310;2023-06-10T01:58:58;17.10;99.90
14053;DHT22;7101;51.600;7.310;2023-06-10T02:01:25;17.10;99.90
14053;DHT22;7101;51.600;7.310;2023-06-10T02:03:52;17.00;99.90
14053;DHT22;7101;51.600;7.310;2023-06-10T02:06:19;16.90;99.90
14053;DHT22;7101;51.600;7.310;2023-06-10T02:08:46;16.90;99.90
14053;DHT22;7101;51.600;7.310;2023-06-10T02:11:15;16.80;99.90
14053;DHT22;7101;51.600;7.310;2023-06-10T02:13:41;16.90;99.90
14053;DHT22;7101;51.600;7.310;2023-06-10T02:16:08;16.90;99.90
14053;DHT22;7101;51.600;7.310;2023-06-10T02:18:38;16.90;99.90
14053;DHT22;7101;51.600;7.310;2023-06-10T02:21:06;16.80;99.90
14053;DHT22;7101;51.600;7.310;2023-06-10T02:23:33;16.80;99.90
14053;DHT22;7101;51.600;7.310;2023-06-10T02:26:00;16.80;99.90
14053;DHT22;7101;51.600;7.310;2023-06-10T02:28:31;16.70;99.90
14053;DHT22;7101;51.600;7.310;2023-06-10T02:30:57;16.70;99.90
14053;DHT22;7101;51.600;7.310;2023-06-10T02:33:25;16.70;99.90
14053;DHT22;7101;51.600;7.310;2023-06-10T02:35:52;16.80;99.90
14053;DHT22;7101;51.600;7.310;2023-06-10T02:38:20;16.70;99.90
14053;DHT22;7101;51.600;7.310;2023-06-10T02:40:47;16.70;99.90
14053;DHT22;7101;51.600;7.310;2023-06-10T02:43:14;16.60;99.90
14053;DHT22;7101;51.600;7.310;2023-06-10T02:45:42;16.50;99.90
14053;DHT22;7101;51.600;7.310;2023-06-10T02:48:09;16.50;99.90
14053;DHT22;7101;51.600;7.310;2023-06-10T02:50:35;16.50;99.90
14053;DHT22;7101;51.600;7.310;2023-06-10T02:53:04;16.50;99.90
14053;DHT22;7101;51.600;7.310;2023-06-10T02:55:31;16.50;99.90
14053;DHT22;7101;51.600;7.310;2023-06-10T02:57:57;16.40;99.90
14053;DHT22;7101;51.600;7.310;2023-06-10T03:00:24;16.50;99.90
14053;DHT22;7101;51.600;7.310;2023-06-10T03:02:53;16.40;99.90
14053;DHT22;7101;51.600;7.310;2023-06-10T03:05:23;16.40;99.90
14053;DHT22;7101;51.600;7.310;2023-06-10T03:07:50;16.40;99.90
14053;DHT22;7101;51.600;7.310;2023-06-10T03:10:17;16.40;99.90
14053;DHT22;7101;51.600;7.310;2023-06-10T03:12:47;16.30;99.90
14053;DHT22;7101;51.600;7.310;2023-06-10T03:15:17;16.30;99.90
14053;DHT22;7101;51.600;7.310;2023-06-10T03:17:46;16.30;99.90
14053;DHT22;7101;51.600;7.310;2023-06-10T03:20:14;16.30;99.90
14053;DHT22;7101;51.600;7.310;2023-06-10T03:22:42;16.40;99.90
14053;DHT22;7101;51.600;7.310;2023-06-10T03:25:09;16.40;99.90
14053;DHT22;7101;51.600;7.310;2023-06-10T03:27:39;16.40;99.90
14053;DHT22;7101;51.600;7.310;2023-06-10T03:30:07;16.30;99.90
14053;DHT22;7101;51.600;7.310;2023-06-10T03:32:34;16.40;99.90
14053;DHT22;7101;51.600;7.310;2023-06-10T03:35:01;16.50;99.90
14053;DHT22;7101;51.600;7.310;2023-06-10T03:37:29;16.40;99.90
14053;DHT22;7101;51.600;7.310;2023-06-10T03:39:56;16.40;99.90
14053;DHT22;7101;51.600;7.310;2023-06-10T03:42:23;16.30;99.90
14053;DHT22;7101;51.600;7.310;2023-06-10T03:44:50;16.30;99.90
14053;DHT22;7101;51.600;7.310;2023-06-10T03:47:18;16.30;99.90
14053;DHT22;7101;51.600;7.310;2023-06-10T03:49:45;16.40;99.90
14053;DHT22;7101;51.600;7.310;2023-06-10T03:52:12;16.50;99.90
14053;DHT22;7101;51.600;7.310;2023-06-10T03:54:40;16.60;99.90
14053;DHT22;7101;51.600;7.310;2023-06-10T03:57:07;16.70;99.90
14053;DHT22;7101;51.600;7.310;2023-06-10T03:59:33;16.60;99.90
14053;DHT22;7101;51.600;7.310;2023-06-10T04:02:00;16.70;99.90
14053;DHT22;7101;51.600;7.310;2023-06-10T04:04:27;16.90;99.90
14053;DHT22;7101;51.600;7.310;2023-06-10T04:06:54;17.50;99.90
14053;DHT22;7101;51.600;7.310;2023-06-10T04:09:21;18.00;99.90
14053;DHT22;7101;51.600;7.310;2023-06-10T04:11:49;18.70;99.90
14053;DHT22;7101;51.600;7.310;2023-06-10T04:14:16;19.30;99.90
14053;DHT22;7101;51.600;7.310;2023-06-10T04:16:43;19.60;99.90
14053;DHT22;7101;51.600;7.310;2023-06-10T04:19:11;20.00;99.90
14053;DHT22;7101;51.600;7.310;2023-06-10T04:21:39;20.60;99.90
14053;DHT22;7101;51.600;7.310;2023-06-10T04:24:05;21.00;99.90
14053;DHT22;7101;51.600;7.310;2023-06-10T04:26:32;21.40;99.90
14053;DHT22;7101;51.600;7.310;2023-06-10T04:29:01;21.70;99.90
14053;DHT22;7101;51.600;7.310;2023-06-10T04:31:28;21.90;99.90
14053;DHT22;7101;51.600;7.310;2023-06-10T04:33:55;22.00;99.90
14053;DHT22;7101;51.600;7.310;2023-06-10T04:36:22;22.00;99.90
14053;DHT22;7101;51.600;7.310;2023-06-10T04:38:50;22.60;99.90
14053;DHT22;7101;51.600;7.310;2023-06-10T04:41:18;22.80;99.90
14053;DHT22;7101;51.600;7.310;2023-06-10T04:43:45;22.70;99.90
14053;DHT22;7101;51.600;7.310;2023-06-10T04:46:14;22.90;99.90
14053;DHT22;7101;51.600;7.310;2023-06-10T04:48:41;23.20;99.90
14053;DHT22;7101;51.600;7.310;2023-06-10T04:51:07;23.20;99.90
14053;DHT22;7101;51.600;7.310;2023-06-10T04:53:36;23.40;99.90
14053;DHT22;7101;51.600;7.310;2023-06-10T04:56:03;23.90;99.90
14053;DHT22;7101;51.600;7.310;2023-06-10T04:58:30;23.80;99.90
14053;DHT22;7101;51.600;7.310;2023-06-10T05:00:57;24.10;99.90
14053;DHT22;7101;51.600;7.310;2023-06-10T05:03:26;24.50;99.90
14053;DHT22;7101;51.600;7.310;2023-06-10T05:05:55;24.60;99.90
14053;DHT22;7101;51.600;7.310;2023-06-10T05:08:21;25.20;99.90
14053;DHT22;7101;51.600;7.310;2023-06-10T05:10:50;25.30;99.90
14053;DHT22;7101;51.600;7.310;2023-06-10T05:13:17;25.70;99.90
14053;DHT22;7101;51.600;7.310;2023-06-10T05:15:44;26.10;99.90
14053;DHT22;7101;51.600;7.310;2023-06-10T05:18:13;26.20;99.90
14053;DHT22;7101;51.600;7.310;2023-06-10T05:20:41;26.40;99.90
14053;DHT22;7101;51.600;7.310;2023-06-10T05:23:08;26.10;99.90
14053;DHT22;7101;51.600;7.310;2023-06-10T05:25:35;26.00;99.90
14053;DHT22;7101;51.600;7.310;2023-06-10T05:28:02;26.20;99.90
14053;DHT22;7101;51.600;7.310;2023-06-10T05:30:29;26.30;99.90
14053;DHT22;7101;51.600;7.310;2023-06-10T05:32:55;26.50;99.90
14053;DHT22;7101;51.600;7.310;2023-06-10T05:35:23;26.60;99.90
14053;DHT22;7101;51.600;7.310;2023-06-10T05:37:51;26.70;99.90
14053;DHT22;7101;51.600;7.310;2023-06-10T05:40:18;27.00;99.90
14053;DHT22;7101;51.600;7.310;2023-06-10T05:42:45;26.60;99.90
14053;DHT22;7101;51.600;7.310;2023-06-10T05:45:13;26.80;99.90
14053;DHT22;7101;51.600;7.310;2023-06-10T05:47:40;26.90;99.90
14053;DHT22;7101;51.600;7.310;2023-06-10T05:50:09;27.20;99.90
14053;DHT22;7101;51.600;7.310;2023-06-10T05:52:37;27.70;98.70
14053;DHT22;7101;51.600;7.310;2023-06-10T05:55:09;27.80;96.90
14053;DHT22;7101;51.600;7.310;2023-06-10T05:57:36;28.20;94.80
14053;DHT22;7101;51.600;7.310;2023-06-10T06:00:08;28.40;94.40
14053;DHT22;7101;51.600;7.310;2023-06-10T06:02:36;28.70;93.50
14053;DHT22;7101;51.600;7.310;2023-06-10T06:05:06;28.70;92.80
14053;DHT22;7101;51.600;7.310;2023-06-10T06:07:34;28.70;94.10
14053;DHT22;7101;51.600;7.310;2023-06-10T06:10:02;28.80;92.80
14053;DHT22;7101;51.600;7.310;2023-06-10T06:12:30;29.20;91.40
14053;DHT22;7101;51.600;7.310;2023-06-10T06:14:57;28.80;89.10
14053;DHT22;7101;51.600;7.310;2023-06-10T06:17:24;28.40;90.10
14053;DHT22;7101;51.600;7.310;2023-06-10T06:19:51;28.00;88.90
14053;DHT22;7101;51.600;7.310;2023-06-10T06:22:18;28.10;88.30
14053;DHT22;7101;51.600;7.310;2023-06-10T06:24:47;28.10;88.60
14053;DHT22;7101;51.600;7.310;2023-06-10T06:27:15;28.40;86.80
14053;DHT22;7101;51.600;7.310;2023-06-10T06:29:45;28.30;86.70
14053;DHT22;7101;51.600;7.310;2023-06-10T06:32:12;28.50;84.30
14053;DHT22;7101;51.600;7.310;2023-06-10T06:34:39;28.30;84.80
14053;DHT22;7101;51.600;7.310;2023-06-10T06:37:07;28.20;83.40
14053;DHT22;7101;51.600;7.310;2023-06-10T06:39:34;28.30;81.40
14053;DHT22;7101;51.600;7.310;2023-06-10T06:42:01;27.90;83.00
14053;DHT22;7101;51.600;7.310;2023-06-10T06:44:28;28.40;83.40
14053;DHT22;7101;51.600;7.310;2023-06-10T06:46:56;28.40;84.60
14053;DHT22;7101;51.600;7.310;2023-06-10T06:49:23;28.80;80.70
14053;DHT22;7101;51.600;7.310;2023-06-10T06:51:50;28.70;80.30
14053;DHT22;7101;51.600;7.310;2023-06-10T06:54:20;28.30;84.30
14053;DHT22;7101;51.600;7.310;2023-06-10T06:56:47;28.60;81.50
14053;DHT22;7101;51.600;7.310;2023-06-10T06:59:14;28.90;80.70
14053;DHT22;7101;51.600;7.310;2023-06-10T07:01:43;29.30;79.80
14053;DHT22;7101;51.600;7.310;2023-06-10T07:04:11;29.00;77.70
14053;DHT22;7101;51.600;7.310;2023-06-10T07:06:38;29.30;77.60
14053;DHT22;7101;51.600;7.310;2023-06-10T07:09:07;28.90;80.30
14053;DHT22;7101;51.600;7.310;2023-06-10T07:11:35;29.20;78.10
14053;DHT22;7101;51.600;7.310;2023-06-10T07:14:04;29.90;76.80
14053;DHT22;7101;51.600;7.310;2023-06-10T07:16:34;29.80;76.90
14053;DHT22;7101;51.600;7.310;2023-06-10T07:19:01;29.70;81.80
14053;DHT22;7101;51.600;7.310;2023-06-10T07:21:30;30.00;75.50
14053;DHT22;7101;51.600;7.310;2023-06-10T07:23:58;30.00;72.90
14053;DHT22;7101;51.600;7.310;2023-06-10T07:26:29;29.90;72.60
14053;DHT22;7101;51.600;7.310;2023-06-10T07:28:56;29.80;73.70
14053;DHT22;7101;51.600;7.310;2023-06-10T07:31:23;29.90;75.20
14053;DHT22;7101;51.600;7.310;2023-06-10T07:33:51;30.10;73.40
14053;DHT22;7101;51.600;7.310;2023-06-10T07:36:19;30.10;74.40
14053;DHT22;7101;51.600;7.310;2023-06-10T07:38:47;29.70;72.10
14053;DHT22;7101;51.600;7.310;2023-06-10T07:41:14;29.50;76.90
14053;DHT22;7101;51.600;7.310;2023-06-10T07:43:43;29.30;76.20
14053;DHT22;7101;51.600;7.310;2023-06-10T07:46:10;29.40;73.60
14053;DHT22;7101;51.600;7.310;2023-06-10T07:48:37;29.90;74.20
14053;DHT22;7101;51.600;7.310;2023-06-10T07:51:04;30.20;75.30
14053;DHT22;7101;51.600;7.310;2023-06-10T07:53:31;30.30;74.60
14053;DHT22;7101;51.600;7.310;2023-06-10T07:55:59;30.60;73.90
14053;DHT22;7101;51.600;7.310;2023-06-10T07:58:27;31.00;69.00
14053;DHT22;7101;51.600;7.310;2023-06-10T08:00:54;30.60;69.60
14053;DHT22;7101;51.600;7.310;2023-06-10T08:03:21;29.90;73.30
14053;DHT22;7101;51.600;7.310;2023-06-10T08:05:48;29.70;73.20
14053;DHT22;7101;51.600;7.310;2023-06-10T08:08:15;30.50;70.50
14053;DHT22;7101;51.600;7.310;2023-06-10T08:10:42;30.40;71.00
14053;DHT22;7101;51.600;7.310;2023-06-10T08:13:10;30.10;71.50
14053;DHT22;7101;51.600;7.310;2023-06-10T08:15:37;29.90;72.40
14053;DHT22;7101;51.600;7.310;2023-06-10T08:18:06;30.20;71.90
14053;DHT22;7101;51.600;7.310;2023-06-10T08:20:32;30.50;70.60
14053;DHT22;7101;51.600;7.310;2023-06-10T08:22:59;30.80;70.60
14053;DHT22;7101;51.600;7.310;2023-06-10T08:25:27;31.00;70.20
14053;DHT22;7101;51.600;7.310;2023-06-10T08:27:54;31.10;66.10
14053;DHT22;7101;51.600;7.310;2023-06-10T08:30:23;30.90;68.00
14053;DHT22;7101;51.600;7.310;2023-06-10T08:32:50;31.50;68.20
14053;DHT22;7101;51.600;7.310;2023-06-10T08:35:18;31.40;67.10
14053;DHT22;7101;51.600;7.310;2023-06-10T08:37:45;30.90;69.30
14053;DHT22;7101;51.600;7.310;2023-06-10T08:40:13;31.30;69.30
14053;DHT22;7101;51.600;7.310;2023-06-10T08:42:44;31.60;66.10
14053;DHT22;7101;51.600;7.310;2023-06-10T08:45:16;31.50;72.30
14053;DHT22;7101;51.600;7.310;2023-06-10T08:47:45;31.20;68.80
14053;DHT22;7101;51.600;7.310;2023-06-10T08:50:16;30.80;66.00
14053;DHT22;7101;51.600;7.310;2023-06-10T08:52:54;30.80;64.80
14053;DHT22;7101;51.600;7.310;2023-06-10T08:55:29;30.80;66.30
14053;DHT22;7101;51.600;7.310;2023-06-10T08:57:57;31.00;66.10
14053;DHT22;7101;51.600;7.310;2023-06-10T09:00:32;31.10;66.10
14053;DHT22;7101;51.600;7.310;2023-06-10T09:03:01;31.20;69.20
14053;DHT22;7101;51.600;7.310;2023-06-10T09:05:29;31.10;67.40
14053;DHT22;7101;51.600;7.310;2023-06-10T09:07:57;31.00;66.20
14053;DHT22;7101;51.600;7.310;2023-06-10T09:10:25;30.60;66.30
14053;DHT22;7101;51.600;7.310;2023-06-10T09:12:54;30.80;65.60
14053;DHT22;7101;51.600;7.310;2023-06-10T09:15:21;30.90;65.90
14053;DHT22;7101;51.600;7.310;2023-06-10T09:17:48;30.70;66.00
14053;DHT22;7101;51.600;7.310;2023-06-10T09:20:16;30.60;66.70
14053;DHT22;7101;51.600;7.310;2023-06-10T09:22:43;30.50;72.50
14053;DHT22;7101;51.600;7.310;2023-06-10T09:25:11;30.50;70.00
14053;DHT22;7101;51.600;7.310;2023-06-10T09:27:52;30.60;68.40
14053;DHT22;7101;51.600;7.310;2023-06-10T09:30:24;30.50;70.80
14053;DHT22;7101;51.600;7.310;2023-06-10T09:32:53;29.90;68.80
14053;DHT22;7101;51.600;7.310;2023-06-10T09:35:23;30.10;69.10
14053;DHT22;7101;51.600;7.310;2023-06-10T09:37:54;29.60;70.50
14053;DHT22;7101;51.600;7.310;2023-06-10T09:40:23;29.40;71.50
14053;DHT22;7101;51.600;7.310;2023-06-10T09:42:54;29.60;72.20
14053;DHT22;7101;51.600;7.310;2023-06-10T09:45:22;29.50;74.40
14053;DHT22;7101;51.600;7.310;2023-06-10T09:47:52;29.50;74.30
14053;DHT22;7101;51.600;7.310;2023-06-10T09:50:19;29.50;70.90
14053;DHT22;7101;51.600;7.310;2023-06-10T09:52:48;29.80;73.30
14053;DHT22;7101;51.600;7.310;2023-06-10T09:55:15;29.10;73.00
14053;DHT22;7101;51.600;7.310;2023-06-10T09:57:42;29.20;72.10
14053;DHT22;7101;51.600;7.310;2023-06-10T10:00:13;29.20;72.50
14053;DHT22;7101;51.600;7.310;2023-06-10T10:02:46;29.30;73.40
14053;DHT22;7101;51.600;7.310;2023-06-10T10:05:14;29.60;72.10
14053;DHT22;7101;51.600;7.310;2023-06-10T10:07:41;29.30;71.60
14053;DHT22;7101;51.600;7.310;2023-06-10T10:10:10;28.90;74.00
14053;DHT22;7101;51.600;7.310;2023-06-10T10:12:38;29.00;73.20
14053;DHT22;7101;51.600;7.310;2023-06-10T10:15:06;29.10;72.60
14053;DHT22;7101;51.600;7.310;2023-06-10T10:17:35;29.50;72.00
14053;DHT22;7101;51.600;7.310;2023-06-10T10:20:05;29.50;71.20
14053;DHT22;7101;51.600;7.310;2023-06-10T10:22:38;29.40;69.10
14053;DHT22;7101;51.600;7.310;2023-06-10T10:25:11;29.50;72.90
14053;DHT22;7101;51.600;7.310;2023-06-10T10:27:43;29.50;72.60
14053;DHT22;7101;51.600;7.310;2023-06-10T10:30:14;29.50;72.00
14053;DHT22;7101;51.600;7.310;2023-06-10T10:32:50;29.60;74.90
14053;DHT22;7101;51.600;7.310;2023-06-10T10:35:21;29.40;73.20
14053;DHT22;7101;51.600;7.310;2023-06-10T10:37:48;29.50;74.00
14053;DHT22;7101;51.600;7.310;2023-06-10T10:40:17;29.60;71.80
14053;DHT22;7101;51.600;7.310;2023-06-10T10:42:48;29.50;67.80
14053;DHT22;7101;51.600;7.310;2023-06-10T10:45:18;29.40;73.80
14053;DHT22;7101;51.600;7.310;2023-06-10T10:47:46;29.30;70.50
14053;DHT22;7101;51.600;7.310;2023-06-10T10:50:19;29.30;70.90
14053;DHT22;7101;51.600;7.310;2023-06-10T10:52:59;29.70;71.80
14053;DHT22;7101;51.600;7.310;2023-06-10T10:55:28;29.90;71.70
14053;DHT22;7101;51.600;7.310;2023-06-10T10:57:56;29.70;70.90
14053;DHT22;7101;51.600;7.310;2023-06-10T11:00:30;29.70;70.50
14053;DHT22;7101;51.600;7.310;2023-06-10T11:03:15;29.80;71.90
14053;DHT22;7101;51.600;7.310;2023-06-10T11:05:44;29.80;70.80
14053;DHT22;7101;51.600;7.310;2023-06-10T11:08:15;29.90;69.80
14053;DHT22;7101;51.600;7.310;2023-06-10T11:10:52;29.80;67.90
14053;DHT22;7101;51.600;7.310;2023-06-10T11:13:20;30.10;71.50
14053;DHT22;7101;51.600;7.310;2023-06-10T11:15:51;30.10;72.30
14053;DHT22;7101;51.600;7.310;2023-06-10T11:18:22;30.00;73.40
14053;DHT22;7101;51.600;7.310;2023-06-10T11:21:00;30.10;66.30
14053;DHT22;7101;51.600;7.310;2023-06-10T11:23:43;30.20;66.80
14053;DHT22;7101;51.600;7.310;2023-06-10T11:26:13;30.30;68.30
14053;DHT22;7101;51.600;7.310;2023-06-10T11:28:41;30.30;64.90
14053;DHT22;7101;51.600;7.310;2023-06-10T11:31:11;30.30;64.00
14053;DHT22;7101;51.600;7.310;2023-06-10T11:33:46;29.90;61.10
14053;DHT22;7101;51.600;7.310;2023-06-10T11:36:13;29.80;63.20
14053;DHT22;7101;51.600;7.310;2023-06-10T11:38:41;29.90;68.80
14053;DHT22;7101;51.600;7.310;2023-06-10T11:41:12;29.90;64.60
14053;DHT22;7101;51.600;7.310;2023-06-10T11:43:42;29.90;64.10
14053;DHT22;7101;51.600;7.310;2023-06-10T11:46:09;29.90;61.70
14053;DHT22;7101;51.600;7.310;2023-06-10T11:48:36;29.80;60.50
14053;DHT22;7101;51.600;7.310;2023-06-10T11:51:06;29.90;62.90
14053;DHT22;7101;51.600;7.310;2023-06-10T11:53:33;29.90;64.70
14053;DHT22;7101;51.600;7.310;2023-06-10T11:56:00;29.90;63.10
14053;DHT22;7101;51.600;7.310;2023-06-10T11:58:29;29.70;65.50
14053;DHT22;7101;51.600;7.310;2023-06-10T12:00:55;29.60;67.50
14053;DHT22;7101;51.600;7.310;2023-06-10T12:03:24;29.70;62.50
14053;DHT22;7101;51.600;7.310;2023-06-10T12:05:58;29.70;66.10
14053;DHT22;7101;51.600;7.310;2023-06-10T12:08:25;29.70;63.90
14053;DHT22;7101;51.600;7.310;2023-06-10T12:10:53;29.50;65.10
14053;DHT22;7101;51.600;7.310;2023-06-10T12:13:20;29.70;64.60
14053;DHT22;7101;51.600;7.310;2023-06-10T12:15:50;29.90;68.50
14053;DHT22;7101;51.600;7.310;2023-06-10T12:18:17;29.90;64.00
14053;DHT22;7101;51.600;7.310;2023-06-10T12:20:45;29.90;69.30
14053;DHT22;7101;51.600;7.310;2023-06-10T12:23:12;30.10;66.70
14053;DHT22;7101;51.600;7.310;2023-06-10T12:25:39;30.10;63.50
14053;DHT22;7101;51.600;7.310;2023-06-10T12:28:15;30.10;64.70
14053;DHT22;7101;51.600;7.310;2023-06-10T12:30:43;29.90;61.60
14053;DHT22;7101;51.600;7.310;2023-06-10T12:33:17;30.00;63.70
14053;DHT22;7101;51.600;7.310;2023-06-10T12:35:48;30.10;65.60
14053;DHT22;7101;51.600;7.310;2023-06-10T12:38:21;30.10;61.60
14053;DHT22;7101;51.600;7.310;2023-06-10T12:40:48;30.10;62.80
14053;DHT22;7101;51.600;7.310;2023-06-10T12:43:19;30.00;62.30
14053;DHT22;7101;51.600;7.310;2023-06-10T12:45:46;30.20;61.40
14053;DHT22;7101;51.600;7.310;2023-06-10T12:48:19;29.90;59.60
14053;DHT22;7101;51.600;7.310;2023-06-10T12:50:51;30.20;61.50
14053;DHT22;7101;51.600;7.310;2023-06-10T12:53:18;30.00;58.70
14053;DHT22;7101;51.600;7.310;2023-06-10T12:55:46;29.90;60.00
14053;DHT22;7101;51.600;7.310;2023-06-10T12:58:13;30.00;60.90
14053;DHT22;7101;51.600;7.310;2023-06-10T13:00:40;30.00;60.20
14053;DHT22;7101;51.600;7.310;2023-06-10T13:03:08;30.00;59.30
14053;DHT22;7101;51.600;7.310;2023-06-10T13:05:38;30.20;59.10
14053;DHT22;7101;51.600;7.310;2023-06-10T13:08:05;30.20;58.40
14053;DHT22;7101;51.600;7.310;2023-06-10T13:10:34;30.00;61.70
14053;DHT22;7101;51.600;7.310;2023-06-10T13:13:01;30.00;60.60
14053;DHT22;7101;51.600;7.310;2023-06-10T13:15:31;30.10;59.50
14053;DHT22;7101;51.600;7.310;2023-06-10T13:17:58;30.10;60.30
14053;DHT22;7101;51.600;7.310;2023-06-10T13:20:24;29.90;58.10
14053;DHT22;7101;51.600;7.310;2023-06-10T13:22:52;30.00;58.40
14053;DHT22;7101;51.600;7.310;2023-06-10T13:25:19;30.10;59.50
14053;DHT22;7101;51.600;7.310;2023-06-10T13:27:46;29.90;64.90
14053;DHT22;7101;51.600;7.310;2023-06-10T13:30:13;29.90;61.50
14053;DHT22;7101;51.600;7.310;2023-06-10T13:32:40;30.20;63.80
14053;DHT22;7101;51.600;7.310;2023-06-10T13:35:07;30.30;57.50
14053;DHT22;7101;51.600;7.310;2023-06-10T13:37:35;30.30;59.20
14053;DHT22;7101;51.600;7.310;2023-06-10T13:40:04;30.30;58.70
14053;DHT22;7101;51.600;7.310;2023-06-10T13:42:33;30.20;58.60
14053;DHT22;7101;51.600;7.310;2023-06-10T13:45:01;30.20;56.50
14053;DHT22;7101;51.600;7.310;2023-06-10T13:47:28;30.20;59.20
14053;DHT22;7101;51.600;7.310;2023-06-10T13:49:55;30.00;61.50
14053;DHT22;7101;51.600;7.310;2023-06-10T13:52:21;30.10;55.90
14053;DHT22;7101;51.600;7.310;2023-06-10T13:54:48;30.10;56.30
14053;DHT22;7101;51.600;7.310;2023-06-10T13:57:16;30.20;56.20
14053;DHT22;7101;51.600;7.310;2023-06-10T13:59:43;30.10;59.00
14053;DHT22;7101;51.600;7.310;2023-06-10T14:02:10;30.10;59.00
14053;DHT22;7101;51.600;7.310;2023-06-10T14:04:37;30.20;55.50
14053;DHT22;7101;51.600;7.310;2023-06-10T14:07:04;30.10;55.70
14053;DHT22;7101;51.600;7.310;2023-06-10T14:09:31;29.90;56.50
14053;DHT22;7101;51.600;7.310;2023-06-10T14:11:58;29.90;57.50
14053;DHT22;7101;51.600;7.310;2023-06-10T14:14:27;30.10;58.60
14053;DHT22;7101;51.600;7.310;2023-06-10T14:16:53;30.10;58.40
14053;DHT22;7101;51.600;7.310;2023-06-10T14:19:20;30.10;57.10
14053;DHT22;7101;51.600;7.310;2023-06-10T14:21:47;30.10;56.70
14053;DHT22;7101;51.600;7.310;2023-06-10T14:24:15;30.00;57.10
14053;DHT22;7101;51.600;7.310;2023-06-10T14:26:41;29.90;57.30
14053;DHT22;7101;51.600;7.310;2023-06-10T14:29:08;30.00;56.90
14053;DHT22;7101;51.600;7.310;2023-06-10T14:31:36;30.00;56.30
14053;DHT22;7101;51.600;7.310;2023-06-10T14:34:03;29.90;57.00
14053;DHT22;7101;51.600;7.310;2023-06-10T14:36:31;29.90;56.60
14053;DHT22;7101;51.600;7.310;2023-06-10T14:38:58;30.00;57.30
14053;DHT22;7101;51.600;7.310;2023-06-10T14:41:25;30.10;57.60
14053;DHT22;7101;51.600;7.310;2023-06-10T14:43:52;30.20;56.90
14053;DHT22;7101;51.600;7.310;2023-06-10T14:46:19;30.10;56.50
14053;DHT22;7101;51.600;7.310;2023-06-10T14:48:48;29.90;55.50
14053;DHT22;7101;51.600;7.310;2023-06-10T14:51:14;30.00;56.90
14053;DHT22;7101;51.600;7.310;2023-06-10T14:53:41;29.90;54.80
14053;DHT22;7101;51.600;7.310;2023-06-10T14:56:08;29.90;55.90
14053;DHT22;7101;51.600;7.310;2023-06-10T14:58:35;30.00;57.50
14053;DHT22;7101;51.600;7.310;2023-06-10T15:01:02;30.10;57.10
14053;DHT22;7101;51.600;7.310;2023-06-10T15:03:29;30.00;55.00
14053;DHT22;7101;51.600;7.310;2023-06-10T15:05:57;30.10;54.80
14053;DHT22;7101;51.600;7.310;2023-06-10T15:08:26;29.90;55.30
14053;DHT22;7101;51.600;7.310;2023-06-10T15:10:53;30.10;58.30
14053;DHT22;7101;51.600;7.310;2023-06-10T15:13:20;30.00;59.00
14053;DHT22;7101;51.600;7.310;2023-06-10T15:15:47;30.20;60.70
14053;DHT22;7101;51.600;7.310;2023-06-10T15:18:14;30.10;59.20
14053;DHT22;7101;51.600;7.310;2023-06-10T15:20:42;29.80;60.00
14053;DHT22;7101;51.600;7.310;2023-06-10T15:23:10;29.80;61.90
14053;DHT22;7101;51.600;7.310;2023-06-10T15:25:37;29.80;63.80
14053;DHT22;7101;51.600;7.310;2023-06-10T15:28:06;29.50;62.10
14053;DHT22;7101;51.600;7.310;2023-06-10T15:30:34;29.50;63.90
14053;DHT22;7101;51.600;7.310;2023-06-10T15:33:03;29.50;61.40
14053;DHT22;7101;51.600;7.310;2023-06-10T15:35:31;29.40;60.20
14053;DHT22;7101;51.600;7.310;2023-06-10T15:37:59;29.40;60.30
14053;DHT22;7101;51.600;7.310;2023-06-10T15:40:28;29.30;62.10
14053;DHT22;7101;51.600;7.310;2023-06-10T15:42:55;29.30;61.20
14053;DHT22;7101;51.600;7.310;2023-06-10T15:45:22;29.30;62.70
14053;DHT22;7101;51.600;7.310;2023-06-10T15:47:49;29.30;63.20
14053;DHT22;7101;51.600;7.310;2023-06-10T15:50:16;29.50;64.00
14053;DHT22;7101;51.600;7.310;2023-06-10T15:52:42;29.70;66.30